Time;durP1;ratioP1;P1;durP2;ratioP2;P2;SDS_P1;SDS_P2;PMS_P1;PMS_P2;Temp;Humidity;BMP_temperature;BMP_pressure;BME280_temperature;BME280_humidity;BME280_pressure;Samples;Min_cycle;Max_cycle;Signal;HPM_P1;HPM_P2
2022/01/10 00:00:50;;;;;;;23.52;8.40;;;;;;;5.81;76.65;99169.69;5091754;28;20051;-63
2022/01/10 00:03:17;;;;;;;18.17;6.82;;;;;;;5.79;77.04;99185.44;5092022;28;20082;-63
2022/01/10 00:05:44;;;;;;;26.27;8.05;;;;;;;5.80;77.35;99188.91;5091961;28;20052;-60
2022/01/10 00:08:14;;;;;;;25.80;8.32;;;;;;;5.81;77.31;99193.19;5092121;28;20462;-62
2022/01/10 00:10:42;;;;;;;17.48;7.85;;;;;;;5.82;77.36;99203.59;5091883;28;20500;-63
2022/01/10 00:13:09;;;;;;;22.17;8.02;;;;;;;5.82;77.68;99203.59;5090493;28;20503;-63
2022/01/10 00:15:36;;;;;;;19.63;7.45;;;;;;;5.84;77.76;99204.34;5091887;28;20101;-61
2022/01/10 00:18:03;;;;;;;17.40;7.80;;;;;;;5.85;77.74;99207.81;5091579;28;20048;-62
2022/01/10 00:20:29;;;;;;;22.80;8.45;;;;;;;5.88;77.63;99212.91;5090279;28;20044;-62
2022/01/10 00:22:56;;;;;;;20.83;8.30;;;;;;;5.87;77.52;99212.03;5091805;28;20113;-61
2022/01/10 00:25:23;;;;;;;24.90;8.18;;;;;;;5.89;77.62;99213.72;5091605;28;20101;-61
2022/01/10 00:27:53;;;;;;;19.67;7.90;;;;;;;5.89;77.42;99218.97;5091550;28;20432;-61
2022/01/10 00:30:21;;;;;;;20.40;7.70;;;;;;;5.87;77.71;99227.72;5091234;28;20048;-63
2022/01/10 00:32:49;;;;;;;22.38;8.93;;;;;;;5.91;77.59;99227.59;5091640;28;20056;-61
2022/01/10 00:35:16;;;;;;;20.23;8.85;;;;;;;5.90;77.32;99225.91;5091277;28;20134;-62
2022/01/10 00:37:43;;;;;;;14.65;8.10;;;;;;;5.89;77.54;99227.66;5091484;28;20098;-61
2022/01/10 00:40:12;;;;;;;20.70;8.30;;;;;;;5.89;77.33;99242.47;5091177;28;20450;-62
2022/01/10 00:42:39;;;;;;;21.95;9.68;;;;;;;5.91;77.40;99243.25;5090102;28;20097;-63
2022/01/10 00:45:17;;;;;;;25.83;8.38;;;;;;;5.90;77.55;99244.19;5091338;28;20393;-62
2022/01/10 00:47:48;;;;;;;25.17;8.98;;;;;;;5.92;77.54;99255.41;5091156;28;20048;-62
2022/01/10 00:50:16;;;;;;;25.05;8.23;;;;;;;5.91;77.36;99251.09;5091105;28;20048;-62
2022/01/10 00:52:42;;;;;;;25.70;8.13;;;;;;;5.91;77.08;99258.94;5091038;28;20044;-61
2022/01/10 00:55:10;;;;;;;23.50;8.25;;;;;;;5.89;77.33;99261.63;5091046;28;20052;-62
2022/01/10 00:57:37;;;;;;;24.80;8.73;;;;;;;5.89;77.25;99272.06;5090024;28;20056;-61
2022/01/10 01:00:06;;;;;;;29.55;9.63;;;;;;;5.87;77.37;99277.34;5089299;28;20055;-61
2022/01/10 01:02:33;;;;;;;18.73;8.23;;;;;;;5.86;77.45;99283.50;5091156;28;20048;-61
2022/01/10 01:05:04;;;;;;;28.23;9.43;;;;;;;5.86;77.23;99287.88;5090019;28;20078;-63
2022/01/10 01:07:31;;;;;;;25.25;8.90;;;;;;;5.85;77.36;99287.03;5091001;28;20052;-61
2022/01/10 01:10:31;;;;;;;28.73;9.13;;;;;;;5.85;77.58;99294.88;5090655;28;20087;-61
2022/01/10 01:25:58;;;;;;;23.95;8.95;;;;;;;5.93;77.94;99322.41;5090698;28;20059;-61
2022/01/10 01:28:25;;;;;;;20.52;8.63;;;;;;;5.94;77.77;99324.13;5089172;28;20103;-62
2022/01/10 01:30:52;;;;;;;21.33;8.73;;;;;;;5.95;77.90;99329.25;5090447;28;20052;-62
2022/01/10 01:33:19;;;;;;;26.35;8.32;;;;;;;5.98;77.76;99342.19;5091019;28;20084;-60
2022/01/10 01:35:47;;;;;;;25.40;8.68;;;;;;;5.99;77.95;99346.47;5090549;28;20051;-60
2022/01/10 01:38:14;;;;;;;21.52;8.82;;;;;;;6.02;77.84;99348.09;5089255;28;20051;-62
2022/01/10 01:40:49;;;;;;;23.63;8.95;;;;;;;6.04;77.71;99353.28;5090108;28;20047;-62
2022/01/10 01:43:15;;;;;;;25.67;9.52;;;;;;;6.07;78.01;99355.78;5090218;28;20044;-61
2022/01/10 01:45:47;;;;;;;19.85;8.52;;;;;;;6.07;77.58;99361.88;5090385;28;20770;-61
2022/01/10 01:48:15;;;;;;;18.15;9.05;;;;;;;6.10;77.73;99364.31;5089113;28;20101;-61
2022/01/10 01:50:43;;;;;;;24.23;8.65;;;;;;;6.11;77.52;99366.03;5088488;28;20419;-61
2022/01/10 01:53:09;;;;;;;18.42;7.75;;;;;;;6.13;77.49;99369.41;5090357;28;21137;-61
2022/01/10 01:55:37;;;;;;;26.38;8.77;;;;;;;6.15;77.33;99373.72;5088701;28;20554;-61
2022/01/10 01:58:04;;;;;;;25.52;9.10;;;;;;;6.17;77.72;99371.91;5089977;28;20051;-62
2022/01/10 02:00:30;;;;;;;18.33;8.13;;;;;;;6.18;77.59;99381.44;5088798;28;20048;-61
2022/01/10 02:02:57;;;;;;;18.08;8.02;;;;;;;6.19;77.45;99389.22;5090075;28;20052;-61
2022/01/10 02:05:24;;;;;;;21.08;8.27;;;;;;;6.21;77.45;99387.34;5090182;28;20060;-61
2022/01/10 02:07:51;;;;;;;18.95;8.23;;;;;;;6.22;77.47;99388.22;5089903;28;20461;-62
2022/01/10 02:10:17;;;;;;;20.10;9.27;;;;;;;6.23;77.25;99401.22;5090065;28;20592;-61
2022/01/10 02:12:44;;;;;;;26.70;8.93;;;;;;;6.24;77.24;99397.69;5093560;28;20450;-62
2022/01/10 02:15:31;;;;;;;23.83;9.13;;;;;;;6.21;76.22;99404.81;5094477;28;20040;-61
2022/01/10 02:18:00;;;;;;;15.00;7.70;;;;;;;6.23;77.14;99408.19;5093113;28;20036;-61
2022/01/10 02:20:32;;;;;;;19.83;8.38;;;;;;;6.21;76.62;99408.25;5093785;28;20101;-62
2022/01/10 02:23:00;;;;;;;17.35;8.95;;;;;;;6.23;77.44;99413.44;5092833;28;20052;-62
2022/01/10 02:25:27;;;;;;;22.20;8.75;;;;;;;6.24;77.25;99413.38;5092682;28;20055;-61
2022/01/10 02:27:54;;;;;;;19.58;9.13;;;;;;;6.24;77.13;99420.34;5093764;28;20052;-63
2022/01/10 02:30:21;;;;;;;17.15;8.27;;;;;;;6.24;77.10;99422.97;5092597;28;20412;-61
2022/01/10 02:32:48;;;;;;;15.10;8.15;;;;;;;6.25;77.05;99435.13;5092474;28;20052;-60
2022/01/10 02:35:24;;;;;;;16.95;8.35;;;;;;;6.22;76.46;99438.75;5092617;28;20044;-60
2022/01/10 02:37:53;;;;;;;22.02;8.65;;;;;;;6.25;77.30;99445.59;5093900;28;20059;-61
2022/01/10 02:40:22;;;;;;;21.60;8.88;;;;;;;6.26;77.17;99449.91;5093609;28;20117;-61
2022/01/10 02:42:49;;;;;;;22.40;9.10;;;;;;;6.25;76.94;99450.81;5092437;28;20074;-60
2022/01/10 02:45:17;;;;;;;18.77;9.25;;;;;;;6.25;77.00;99450.81;5092260;28;20730;-62
2022/01/10 02:47:44;;;;;;;19.38;8.63;;;;;;;6.24;76.78;99454.31;5092200;28;20103;-61
2022/01/10 02:50:11;;;;;;;20.30;8.70;;;;;;;6.24;77.14;99459.56;5093300;28;20128;-62
2022/01/10 02:52:38;;;;;;;20.50;8.30;;;;;;;6.22;77.30;99462.25;5093583;28;20044;-62
2022/01/10 02:55:07;;;;;;;18.48;8.18;;;;;;;6.23;77.19;99469.19;5093379;28;20135;-61
2022/01/10 02:57:34;;;;;;;19.55;8.90;;;;;;;6.23;77.25;99469.19;5093187;28;20048;-61
2022/01/10 03:00:07;;;;;;;16.67;8.35;;;;;;;6.22;76.55;99472.72;5093314;28;20430;-61
2022/01/10 03:02:35;;;;;;;;;;;;;;;6.23;75.94;99481.38;5092661;28;20450;-61
2022/01/10 03:05:04;;;;;;;17.55;8.27;;;;;;;6.26;76.66;99481.25;5093095;28;19955;-63
2022/01/10 03:07:31;;;;;;;23.77;9.20;;;;;;;6.24;76.74;99491.78;5091794;28;20470;-63
2022/01/10 03:09:58;;;;;;;17.63;9.57;;;;;;;6.22;76.79;99491.00;5092927;28;20094;-61
2022/01/10 03:12:25;;;;;;;27.27;9.30;;;;;;;6.21;76.87;99491.06;5093141;28;20081;-61
2022/01/10 03:14:52;;;;;;;21.23;10.35;;;;;;;6.20;77.19;99490.22;5092955;28;20055;-61
2022/01/10 03:17:18;;;;;;;19.95;9.75;;;;;;;6.19;77.01;99501.59;5093253;28;20054;-61
2022/01/10 03:19:45;;;;;;;19.90;9.48;;;;;;;6.19;76.89;99498.13;5093126;28;20052;-63
2022/01/10 03:22:12;;;;;;;22.95;10.38;;;;;;;6.19;77.06;99512.03;5092241;28;20386;-62
2022/01/10 03:24:38;;;;;;;23.05;9.70;;;;;;;6.19;77.35;99514.66;5091836;28;20048;-62
2022/01/10 03:27:06;;;;;;;25.48;9.93;;;;;;;6.20;76.96;99518.13;5091602;28;20044;-61
2022/01/10 03:29:32;;;;;;;22.70;9.70;;;;;;;6.18;77.12;99512.97;5092381;28;20040;-61
2022/01/10 03:32:01;;;;;;;26.48;10.13;;;;;;;6.19;76.68;99519.03;5092893;28;20051;-61
2022/01/10 03:34:28;;;;;;;25.48;10.82;;;;;;;6.18;76.84;99522.56;5091335;28;20048;-61
2022/01/10 03:36:55;;;;;;;29.23;10.55;;;;;;;6.17;77.22;99529.53;5092577;28;20048;-61
2022/01/10 03:39:23;;;;;;;24.50;10.15;;;;;;;6.19;76.65;99532.09;5092453;28;20051;-62
2022/01/10 03:41:50;;;;;;;22.67;9.90;;;;;;;6.16;76.78;99535.69;5091299;28;20055;-61
2022/01/10 03:44:17;;;;;;;22.70;11.48;;;;;;;6.13;76.74;99536.66;5092732;28;20553;-61
2022/01/10 03:46:43;;;;;;;23.80;10.25;;;;;;;6.11;76.64;99538.50;5092824;28;20101;-60
2022/01/10 03:49:10;;;;;;;22.30;10.05;;;;;;;6.08;76.67;99545.63;5092255;28;20397;-65
2022/01/10 03:51:37;;;;;;;26.95;9.85;;;;;;;6.06;76.81;99558.75;5092178;28;20052;-61
2022/01/10 03:54:03;;;;;;;18.13;9.15;;;;;;;6.04;76.65;99557.97;5074165;28;20546;-61
2022/01/10 03:56:30;;;;;;;19.85;9.63;;;;;;;6.04;76.78;99563.19;5091968;28;20109;-62
2022/01/10 03:58:58;;;;;;;21.58;10.25;;;;;;;6.03;76.92;99566.72;5090791;28;20071;-62
2022/01/10 04:01:24;;;;;;;21.40;10.05;;;;;;;6.04;76.87;99576.25;5090646;28;20048;-61
2022/01/10 04:03:52;;;;;;;24.60;10.88;;;;;;;6.03;76.68;99571.94;5091997;28;20066;-61
2022/01/10 04:06:19;;;;;;;25.98;11.23;;;;;;;6.02;76.94;99574.59;5091914;28;20482;-61
2022/01/10 04:08:45;;;;;;;26.27;11.30;;;;;;;6.00;76.61;99572.03;5091895;28;20389;-61
2022/01/10 04:11:12;;;;;;;25.77;10.95;;;;;;;5.98;76.61;99581.72;5091478;28;20101;-62
2022/01/10 04:13:40;;;;;;;28.60;9.82;;;;;;;5.96;76.76;99587.00;5092027;28;20503;-61
2022/01/10 04:16:07;;;;;;;20.30;10.02;;;;;;;5.94;76.73;99590.59;5090325;28;20447;-62
2022/01/10 04:18:33;;;;;;;25.63;10.55;;;;;;;5.91;76.83;99594.16;5091793;28;20044;-61
2022/01/10 04:21:00;;;;;;;25.13;11.07;;;;;;;5.89;76.68;99603.81;5090093;28;20048;-61
2022/01/10 04:23:26;;;;;;;23.15;10.90;;;;;;;5.87;76.38;99609.09;5091766;28;20060;-64
2022/01/10 04:25:53;;;;;;;25.05;10.32;;;;;;;5.85;76.38;99610.94;5091494;28;20048;-61
2022/01/10 04:28:19;;;;;;;20.45;10.23;;;;;;;5.82;76.22;99613.66;5090502;28;20040;-61
2022/01/10 04:30:46;;;;;;;28.52;10.90;;;;;;;5.80;76.33;99620.69;5091493;28;20052;-60
2022/01/10 04:33:17;;;;;;;22.52;10.05;;;;;;;5.75;76.04;99620.03;5090972;28;20059;-62
2022/01/10 04:35:44;;;;;;;22.52;10.00;;;;;;;5.71;75.87;99623.69;5089830;28;20549;-61
2022/01/10 04:38:11;;;;;;;23.92;11.02;;;;;;;5.68;75.84;99629.88;5089912;28;20052;-61
2022/01/10 04:40:38;;;;;;;22.83;9.85;;;;;;;5.65;75.91;99639.59;5090973;28;20496;-61
2022/01/10 04:43:06;;;;;;;27.20;9.70;;;;;;;5.57;75.94;99640.72;5091407;28;20051;-63
2022/01/10 04:45:33;;;;;;;23.55;10.02;;;;;;;5.55;75.87;99649.53;5091263;28;20056;-61
2022/01/10 04:47:59;;;;;;;23.10;10.43;;;;;;;5.52;76.07;99653.13;5091177;28;20044;-61
2022/01/10 04:50:59;;;;;;;30.60;11.80;;;;;;;5.48;76.03;99659.34;5089626;28;20048;-61
2022/01/10 04:53:15;;;;;;;21.38;10.43;;;;;;;5.44;76.25;99668.22;5090876;28;20663;-62
2022/01/10 04:55:42;;;;;;;18.15;10.35;;;;;;;5.41;76.01;99678.75;5090923;28;20078;-61
2022/01/10 04:58:08;;;;;;;22.20;10.10;;;;;;;5.38;76.14;99679.72;5091259;28;20052;-61
2022/01/10 05:00:35;;;;;;;23.55;11.32;;;;;;;5.35;76.39;99685.91;5090971;28;20090;-61
2022/01/10 05:03:01;;;;;;;23.73;11.30;;;;;;;5.33;76.18;99685.13;5091010;28;20083;-63
2022/01/10 05:05:28;;;;;;;28.17;12.18;;;;;;;5.31;75.96;99693.94;5090993;28;20109;-62
2022/01/10 05:07:55;;;;;;;21.75;11.20;;;;;;;5.28;76.05;99702.72;5090689;28;20672;-61
2022/01/10 05:10:22;;;;;;;19.67;11.48;;;;;;;5.25;76.30;99702.81;5090619;28;20093;-62
2022/01/10 05:12:48;;;;;;;26.73;11.45;;;;;;;5.23;76.41;99715.06;5090713;28;20044;-60
2022/01/10 05:15:15;;;;;;;25.63;11.13;;;;;;;5.20;76.25;99713.41;5090883;28;20056;-62
2022/01/10 05:17:43;;;;;;;21.00;10.60;;;;;;;5.18;76.33;99720.47;5090506;28;20055;-60
2022/01/10 05:20:10;;;;;;;21.75;11.27;;;;;;;5.17;76.18;99723.13;5089416;28;20054;-63
2022/01/10 05:22:38;;;;;;;31.15;12.23;;;;;;;5.13;76.42;99727.59;5090545;28;20052;-61
2022/01/10 05:25:05;;;;;;;24.52;12.60;;;;;;;5.12;76.37;99733.72;5090604;28;20059;-61
2022/01/10 05:27:31;;;;;;;25.90;11.55;;;;;;;5.08;76.22;99740.78;5089250;28;20070;-60
2022/01/10 05:29:58;;;;;;;21.58;11.85;;;;;;;5.07;76.32;99740.84;5090318;28;20451;-62
2022/01/10 05:32:24;;;;;;;21.15;12.15;;;;;;;5.05;76.27;99745.28;5090074;28;20081;-61
2022/01/10 05:34:51;;;;;;;25.60;11.85;;;;;;;5.04;76.21;99748.78;5090508;28;20497;-61
2022/01/10 05:37:17;;;;;;;31.65;12.18;;;;;;;5.01;76.15;99749.72;5090520;28;20044;-61
2022/01/10 05:39:44;;;;;;;33.33;12.60;;;;;;;5.01;76.44;99754.13;5090309;28;20108;-62
2022/01/10 05:42:11;;;;;;;27.95;12.88;;;;;;;4.99;76.25;99756.78;5090276;28;20052;-62
2022/01/10 05:44:38;;;;;;;27.92;12.60;;;;;;;4.98;76.33;99762.03;5090322;28;20097;-60
2022/01/10 05:47:04;;;;;;;23.98;11.70;;;;;;;4.95;76.28;99769.06;5090231;28;20500;-61
2022/01/10 05:49:34;;;;;;;21.33;12.43;;;;;;;4.94;76.26;99774.34;5090199;28;20060;-61
2022/01/10 05:52:01;;;;;;;24.00;12.05;;;;;;;4.94;76.35;99779.56;5090317;28;20055;-62
2022/01/10 05:54:28;;;;;;;25.10;12.85;;;;;;;4.92;76.19;99786.56;5089017;28;20194;-61
2022/01/10 05:56:55;;;;;;;25.48;12.95;;;;;;;4.91;76.38;99790.09;5090035;28;20044;-60
2022/01/10 05:59:21;;;;;;;24.20;12.10;;;;;;;4.90;76.26;99798.81;5090133;28;20052;-61
2022/01/10 06:01:48;;;;;;;28.63;13.57;;;;;;;4.88;76.27;99800.59;5090016;28;20052;-60
2022/01/10 06:04:15;;;;;;;26.55;13.13;;;;;;;4.88;76.50;99805.81;5090478;28;20044;-62
2022/01/10 06:06:41;;;;;;;31.83;14.27;;;;;;;4.87;76.49;99811.94;5090169;28;20044;-63
2022/01/10 06:09:08;;;;;;;30.63;14.68;;;;;;;4.85;76.29;99817.22;5088638;28;20052;-62
2022/01/10 06:11:34;;;;;;;27.17;13.55;;;;;;;4.84;76.37;99818.13;5090042;28;20627;-61
2022/01/10 06:14:07;;;;;;;26.00;13.43;;;;;;;4.82;76.52;99826.00;5089922;28;20040;-63
2022/01/10 06:16:35;;;;;;;28.10;14.63;;;;;;;4.82;76.53;99833.81;5089961;28;20446;-62
2022/01/10 06:19:02;;;;;;;28.83;13.88;;;;;;;4.81;76.39;99834.72;5088657;28;20458;-61
2022/01/10 06:21:29;;;;;;;31.90;13.50;;;;;;;4.82;76.58;99840.78;5089755;28;20135;-62
2022/01/10 06:23:55;;;;;;;24.83;13.75;;;;;;;4.82;76.62;99843.38;5089960;28;20082;-62
2022/01/10 06:26:22;;;;;;;27.45;14.38;;;;;;;4.81;76.48;99846.91;5089531;28;20710;-61
2022/01/10 06:28:49;;;;;;;30.90;15.38;;;;;;;4.81;76.55;99855.59;5088493;28;20055;-61
2022/01/10 06:31:15;;;;;;;25.38;12.88;;;;;;;4.81;76.22;99855.59;5089453;28;20496;-62
2022/01/10 06:33:42;;;;;;;26.17;13.30;;;;;;;4.82;76.66;99867.72;5089937;28;20083;-61
2022/01/10 06:36:09;;;;;;;23.67;12.70;;;;;;;4.81;76.31;99868.63;5089723;28;20052;-60
2022/01/10 06:38:36;;;;;;;30.00;13.63;;;;;;;4.80;76.28;99874.75;5089848;28;20086;-63
2022/01/10 06:41:03;;;;;;;25.05;13.23;;;;;;;4.81;76.21;99884.28;5088103;28;20051;-63
2022/01/10 06:43:29;;;;;;;25.33;13.70;;;;;;;4.80;76.49;99879.09;5089740;28;20488;-61
2022/01/10 06:45:56;;;;;;;28.10;14.13;;;;;;;4.79;76.41;99888.66;5089711;28;20044;-61
2022/01/10 06:48:23;;;;;;;27.63;13.30;;;;;;;4.78;76.54;99897.41;5089604;28;20087;-61
2022/01/10 06:50:50;;;;;;;27.73;14.52;;;;;;;4.78;76.27;99906.97;5089098;28;20557;-64
2022/01/10 06:53:17;;;;;;;27.52;14.10;;;;;;;4.78;76.34;99914.78;5089589;28;20051;-61
2022/01/10 06:55:44;;;;;;;19.60;12.88;;;;;;;4.76;76.29;99920.09;5088003;28;20101;-61
2022/01/10 06:58:11;;;;;;;26.40;13.43;;;;;;;4.74;76.41;99921.88;5090389;28;20052;-62
2022/01/10 07:00:38;;;;;;;31.08;14.27;;;;;;;4.75;76.32;99941.00;5091885;28;20074;-61
2022/01/10 07:03:05;;;;;;;24.73;14.15;;;;;;;4.74;76.36;99952.34;5092203;28;20055;-62
2022/01/10 07:05:32;;;;;;;28.60;14.35;;;;;;;4.74;76.24;99957.53;5092571;28;20641;-61
2022/01/10 07:07:58;;;;;;;29.33;14.57;;;;;;;4.73;76.23;99961.03;5093454;28;20044;-61
2022/01/10 07:10:25;;;;;;;23.30;13.70;;;;;;;4.72;76.38;99967.16;5092587;28;20133;-61
2022/01/10 07:12:53;;;;;;;25.27;14.55;;;;;;;4.72;76.23;99974.97;5093458;28;20070;-60
2022/01/10 07:15:20;;;;;;;29.73;14.80;;;;;;;4.71;76.25;99979.31;5093195;28;20055;-60
2022/01/10 07:17:49;;;;;;;24.42;13.38;;;;;;;4.72;76.61;99980.19;5092433;28;20553;-62
2022/01/10 07:20:15;;;;;;;28.88;14.02;;;;;;;4.70;76.43;99985.44;5091980;28;20740;-61
2022/01/10 07:22:42;;;;;;;29.02;14.70;;;;;;;4.70;76.60;99988.06;5092688;28;20056;-60
2022/01/10 07:25:09;;;;;;;25.48;13.93;;;;;;;4.71;76.63;99992.34;5092939;28;20048;-61
2022/01/10 07:27:36;;;;;;;27.30;14.35;;;;;;;4.72;76.74;100001.06;5092695;28;20494;-60
2022/01/10 07:30:04;;;;;;;26.38;14.77;;;;;;;4.71;76.69;100000.19;5092794;28;20123;-61
2022/01/10 07:32:31;;;;;;;29.73;15.32;;;;;;;4.72;76.72;100014.97;5091178;28;20048;-61
2022/01/10 07:34:58;;;;;;;26.92;14.43;;;;;;;4.72;76.62;100020.16;5092655;28;20101;-61
2022/01/10 07:37:25;;;;;;;29.98;13.20;;;;;;;4.72;76.61;100019.31;5092205;28;20052;-62
2022/01/10 07:39:51;;;;;;;26.08;14.65;;;;;;;4.71;76.45;100028.88;5092221;28;20052;-61
2022/01/10 07:42:18;;;;;;;24.63;13.80;;;;;;;4.69;76.31;100034.16;5092124;28;20056;-61
2022/01/10 07:44:44;;;;;;;22.10;13.30;;;;;;;4.68;76.50;100034.19;5092658;28;20044;-61
2022/01/10 07:47:11;;;;;;;28.05;13.35;;;;;;;4.66;76.60;100035.97;5092307;28;20051;-63
2022/01/10 07:49:38;;;;;;;29.58;12.80;;;;;;;4.65;76.74;100047.31;5092058;28;20488;-61
2022/01/10 07:52:05;;;;;;;32.95;13.50;;;;;;;4.64;76.81;100045.59;5092267;28;20047;-60
2022/01/10 07:54:32;;;;;;;29.73;13.27;;;;;;;4.64;76.89;100056.03;5092679;28;20408;-61
2022/01/10 07:56:58;;;;;;;31.88;13.25;;;;;;;4.64;76.83;100064.69;5092034;28;20189;-61
2022/01/10 07:59:25;;;;;;;23.67;13.10;;;;;;;4.66;76.86;100077.69;5091852;28;20248;-63
2022/01/10 08:01:52;;;;;;;24.83;12.93;;;;;;;4.64;76.78;100077.72;5092032;28;20462;-62
2022/01/10 08:04:19;;;;;;;27.65;12.98;;;;;;;4.67;77.09;100082.00;5092033;28;20052;-62
2022/01/10 08:06:46;;;;;;;26.35;12.38;;;;;;;4.67;77.07;100085.47;5092230;28;20048;-61
2022/01/10 08:09:13;;;;;;;22.45;13.07;;;;;;;4.67;77.05;100098.53;5091876;28;20106;-61
2022/01/10 08:11:39;;;;;;;30.05;14.98;;;;;;;4.68;77.09;100102.00;5090771;28;20809;-60
2022/01/10 08:14:06;;;;;;;36.00;15.57;;;;;;;4.69;76.88;100103.69;5092056;28;20488;-62
2022/01/10 08:16:33;;;;;;;29.35;16.05;;;;;;;4.69;77.03;100108.91;5091608;28;20051;-60
2022/01/10 08:19:00;;;;;;;35.78;17.48;;;;;;;4.68;77.08;100113.25;5090220;28;20052;-62
2022/01/10 08:21:27;;;;;;;34.38;17.75;;;;;;;4.69;77.06;100116.72;5091520;28;20063;-62
2022/01/10 08:23:53;;;;;;;33.83;17.73;;;;;;;4.68;76.87;100120.25;5090379;28;20121;-60
2022/01/10 08:26:21;;;;;;;35.13;17.70;;;;;;;4.67;76.93;100123.72;5091745;28;20048;-62
2022/01/10 08:28:47;;;;;;;29.95;16.63;;;;;;;4.66;77.09;100125.50;5090412;28;20511;-60
2022/01/10 08:31:14;;;;;;;35.65;17.33;;;;;;;4.66;77.32;100135.06;5091382;28;20109;-61
2022/01/10 08:33:41;;;;;;;34.03;17.38;;;;;;;4.66;77.22;100141.16;5090100;28;20047;-62
2022/01/10 08:36:08;;;;;;;31.48;18.05;;;;;;;4.67;77.47;100147.19;5091503;28;20056;-62
2022/01/10 08:38:35;;;;;;;34.30;17.35;;;;;;;4.66;77.54;100145.50;5091505;28;20051;-61
2022/01/10 08:41:01;;;;;;;34.15;17.30;;;;;;;4.67;77.66;100149.81;5091261;28;20056;-61
2022/01/10 08:43:28;;;;;;;28.00;16.95;;;;;;;4.69;77.72;100158.47;5091226;28;20557;-63
2022/01/10 08:45:55;;;;;;;38.00;17.88;;;;;;;4.71;77.82;100158.41;5091159;28;20101;-61
2022/01/10 08:48:21;;;;;;;27.58;16.80;;;;;;;4.73;77.96;100162.69;5090976;28;20789;-62
2022/01/10 08:50:48;;;;;;;29.45;17.98;;;;;;;4.76;77.94;100169.59;5090753;28;20492;-61
2022/01/10 08:53:15;;;;;;;32.78;17.45;;;;;;;4.79;78.01;100187.78;5091064;28;20093;-62
2022/01/10 08:55:41;;;;;;;35.38;17.60;;;;;;;4.81;78.17;100183.34;5090900;28;20048;-61
2022/01/10 08:58:08;;;;;;;30.88;17.65;;;;;;;4.86;78.07;100191.06;5090655;28;20468;-61
2022/01/10 09:00:34;;;;;;;38.88;18.63;;;;;;;4.90;78.06;100193.53;5090744;28;20063;-61
2022/01/10 09:03:02;;;;;;;27.23;17.05;;;;;;;4.93;78.14;100198.69;5090792;28;20118;-61
2022/01/10 09:05:32;;;;;;;28.75;16.38;;;;;;;4.97;78.20;100196.84;5089586;28;20044;-61
2022/01/10 09:08:01;;;;;;;36.63;17.77;;;;;;;5.00;78.18;100204.59;5090941;28;20055;-62
2022/01/10 09:10:28;;;;;;;32.53;17.38;;;;;;;5.04;78.28;100211.44;5090557;28;20644;-61
2022/01/10 09:12:59;;;;;;;35.45;18.02;;;;;;;5.08;78.84;100215.69;5090104;28;20056;-61
2022/01/10 09:15:25;;;;;;;32.50;18.20;;;;;;;5.14;79.05;100213.81;5090552;28;20106;-61
2022/01/10 09:17:52;;;;;;;34.67;16.85;;;;;;;5.19;79.48;100215.41;5090559;28;20051;-61
2022/01/10 09:20:19;;;;;;;29.45;15.30;;;;;;;5.25;79.34;100214.38;5088881;28;20055;-63
2022/01/10 09:22:46;;;;;;;32.42;18.80;;;;;;;5.32;79.34;100215.94;5090528;28;20040;-60
2022/01/10 09:25:12;;;;;;;37.05;18.15;;;;;;;5.39;79.21;100224.44;5090701;28;20474;-60
2022/01/10 09:27:39;;;;;;;34.15;19.48;;;;;;;5.45;79.13;100224.25;5090090;28;20055;-62
2022/01/10 09:30:06;;;;;;;29.95;18.42;;;;;;;5.51;78.98;100224.97;5090100;28;20052;-60
2022/01/10 09:32:33;;;;;;;28.30;18.30;;;;;;;5.57;79.05;100230.03;5090520;28;20511;-59
2022/01/10 09:34:59;;;;;;;31.15;18.67;;;;;;;5.61;78.65;100237.72;5089094;28;20524;-62
2022/01/10 09:37:27;;;;;;;33.60;18.95;;;;;;;5.65;78.38;100240.28;5090398;28;20446;-61
2022/01/10 09:39:58;;;;;;;29.20;17.90;;;;;;;5.69;78.36;100244.50;5072942;28;20484;-62
2022/01/10 09:42:25;;;;;;;30.75;18.52;;;;;;;5.71;78.15;100247.91;5090245;28;20164;-61
2022/01/10 09:44:52;;;;;;;32.47;18.92;;;;;;;5.73;78.01;100256.56;5089522;28;20196;-61
2022/01/10 09:47:19;;;;;;;36.35;18.95;;;;;;;5.74;77.85;100255.66;5088814;28;20056;-61
2022/01/10 09:49:46;;;;;;;29.42;18.17;;;;;;;5.76;78.17;100253.03;5090150;28;20048;-62
2022/01/10 09:52:15;;;;;;;26.40;16.67;;;;;;;5.78;78.20;100259.03;5090193;28;20058;-60
2022/01/10 09:54:42;;;;;;;31.20;17.83;;;;;;;5.80;78.13;100272.94;5088819;28;20052;-60
2022/01/10 09:57:09;;;;;;;32.30;17.23;;;;;;;5.82;77.76;100273.72;5088701;28;20052;-60
2022/01/10 09:59:36;;;;;;;31.35;18.10;;;;;;;5.82;77.67;100271.97;5088576;28;20052;-60
2022/01/10 10:02:05;;;;;;;28.05;17.35;;;;;;;5.82;77.52;100284.19;5090147;28;20048;-61
2022/01/10 10:04:36;;;;;;;28.25;17.75;;;;;;;5.82;76.95;100285.03;5090009;28;20048;-61
2022/01/10 10:07:06;;;;;;;34.33;19.05;;;;;;;5.83;77.43;100291.13;5088607;28;20048;-62
2022/01/10 10:09:34;;;;;;;36.00;20.10;;;;;;;5.83;77.11;100297.19;5089697;28;20070;-61
2022/01/10 10:12:02;;;;;;;31.92;20.58;;;;;;;5.80;77.31;100297.28;5088849;28;20581;-62
2022/01/10 10:14:30;;;;;;;36.33;21.25;;;;;;;5.80;77.37;100302.50;5090152;28;20097;-59
2022/01/10 10:17:06;;;;;;;31.55;20.83;;;;;;;5.77;76.98;100310.44;5088323;28;20109;-61
2022/01/10 10:19:32;;;;;;;34.85;21.67;;;;;;;5.76;77.12;100308.75;5089642;28;20478;-62
2022/01/10 10:21:59;;;;;;;30.42;20.83;;;;;;;5.75;77.43;100309.63;5088402;28;20097;-60
2022/01/10 10:24:27;;;;;;;31.42;21.52;;;;;;;5.73;77.59;100320.09;5089859;28;20541;-61
2022/01/10 10:26:56;;;;;;;39.33;21.60;;;;;;;5.73;77.76;100319.28;5089880;28;20462;-61
2022/01/10 10:29:27;;;;;;;35.25;21.13;;;;;;;5.75;78.01;100333.13;5088531;28;20048;-64
2022/01/10 10:31:55;;;;;;;38.72;21.77;;;;;;;5.77;78.47;100344.41;5090630;28;20051;-60
2022/01/10 10:34:29;;;;;;;39.03;21.17;;;;;;;5.80;78.10;100343.47;5092667;28;21195;-61
2022/01/10 10:37:13;;;;;;;34.30;20.13;;;;;;;5.86;78.53;100349.38;5093819;28;20450;-61
2022/01/10 10:39:44;;;;;;;31.13;19.90;;;;;;;5.93;78.81;100351.81;5092318;28;20052;-60
2022/01/10 10:42:14;;;;;;;31.50;17.08;;;;;;;6.01;79.53;100352.44;5093643;28;20097;-63
2022/01/10 10:44:44;;;;;;;30.77;17.25;;;;;;;6.08;79.72;100343.56;5093658;28;20051;-61
2022/01/10 10:47:12;;;;;;;30.08;19.00;;;;;;;6.17;79.78;100349.44;5093488;28;20048;-60
2022/01/10 10:49:44;;;;;;;34.75;19.25;;;;;;;6.24;79.70;100357.06;5093459;28;20060;-63
2022/01/10 10:52:13;;;;;;;25.40;13.90;;;;;;;6.33;79.32;100366.41;5093622;28;20055;-60
2022/01/10 10:54:40;;;;;;;35.03;20.48;;;;;;;6.41;79.55;100360.94;5092194;28;20048;-63
2022/01/10 10:57:09;;;;;;;26.42;14.68;;;;;;;6.47;79.42;100365.13;5091900;28;20570;-63
2022/01/10 10:59:40;;;;;;;26.02;14.43;;;;;;;6.56;79.59;100366.59;5091842;28;20048;-61
2022/01/10 11:02:06;;;;;;;35.50;20.90;;;;;;;6.64;79.72;100369.81;5075882;28;20052;-61
2022/01/10 11:04:34;;;;;;;34.13;21.35;;;;;;;6.71;79.40;100370.50;5093271;28;20082;-62
2022/01/10 11:07:01;;;;;;;37.47;22.15;;;;;;;6.75;78.82;100369.50;5093221;28;20055;-61
2022/01/10 11:09:28;;;;;;;38.38;22.20;;;;;;;6.81;78.81;100374.56;5091659;28;20052;-61
2022/01/10 11:11:55;;;;;;;39.42;22.45;;;;;;;6.85;79.02;100384.03;5093009;28;20436;-63
2022/01/10 11:14:24;;;;;;;31.88;21.15;;;;;;;6.90;79.16;100382.13;5091831;28;20062;-62
2022/01/10 11:16:56;;;;;;;38.88;22.65;;;;;;;6.99;80.06;100390.56;5091399;28;20048;-61
2022/01/10 11:19:28;;;;;;;38.25;24.45;;;;;;;7.07;80.48;100385.97;5092715;28;20052;-60
2022/01/10 11:22:05;;;;;;;40.55;25.15;;;;;;;7.20;80.14;100393.38;5091755;28;20044;-60
2022/01/10 11:24:53;;;;;;;44.38;28.55;;;;;;;7.41;80.72;100397.91;5091580;28;20052;-61
2022/01/10 11:27:43;;;;;;;42.22;27.40;;;;;;;7.75;82.01;100389.81;5091727;28;20064;-60
2022/01/10 11:30:22;;;;;;;42.72;26.77;;;;;;;8.19;85.29;100389.97;5091383;28;20044;-62
2022/01/10 11:33:02;;;;;;;39.67;20.13;;;;;;;8.75;89.96;100394.09;5092400;28;20511;-60
2022/01/10 11:35:51;;;;;;;27.00;15.80;;;;;;;9.54;93.20;100392.66;5091256;28;20127;-61
2022/01/10 11:38:34;;;;;;;34.67;17.05;;;;;;;10.25;92.58;100407.13;5092491;28;20143;-62
2022/01/10 11:41:18;;;;;;;32.25;16.52;;;;;;;11.06;90.42;100406.03;5091105;28;20089;-62